Marystown, Canada
Current Conditions -  °F | °C
As of 11:00 PM on Tuesday 25 Nov 2014 (Local Time) from LFVP Reporting Station
Moderate Fog Moderate Fog  
Wind Chill: 38°   Ceiling: 100
Heat Index: 46°   Visibility: 0.5mi
Dew Point: 46°   Wind: 24mph
Humidity: 100%   Direction: 240°WSW
Pressure: 29.77"   Gusts: NA
Location:  47.17°N, 55.17°W
Report Text: LFVP 260200Z 24021KT 0800 R26/1800U FG OVC001 08/08 Q1008
Loading
Personal Weather Stations






























Interactive Weather Map New forecast layout! Learn more

10-Day Weather Forecast

Advertisements
Track Severe Weather on mobile